Time;durP1;ratioP1;P1;durP2;ratioP2;P2;SDS_P1;SDS_P2;PMS_P1;PMS_P2;Temp;Humidity;BMP_temperature;BMP_pressure;BME280_temperature;BME280_humidity;BME280_pressure;Samples;Min_cycle;Max_cycle;Signal;HPM_P1;HPM_P2
2023/01/18 00:01:46;;;;;;;33.80;14.65;;;;;;;;;;5039967;28;20021;-69
2023/01/18 00:04:11;;;;;;;31.73;14.30;;;;;;;;;;5047238;28;20100;-69
2023/01/18 00:06:36;;;;;;;30.67;13.05;;;;;;;;;;5042407;28;20017;-69
2023/01/18 00:09:02;;;;;;;30.15;12.70;;;;;;;;;;5044849;28;20021;-69
2023/01/18 00:11:27;;;;;;;35.75;14.95;;;;;;;;;;5046009;28;20025;-69
2023/01/18 00:13:53;;;;;;;36.75;14.63;;;;;;;;;;5049705;28;20036;-69
2023/01/18 00:16:20;;;;;;;34.92;13.10;;;;;;;;;;5043631;28;20241;-69
2023/01/18 00:18:52;;;;;;;36.45;14.57;;;;;;;;;;5046889;28;20052;-68
2023/01/18 00:21:17;;;;;;;29.60;12.82;;;;;;;;;;5046434;28;20067;-69
2023/01/18 00:23:43;;;;;;;34.28;14.00;;;;;;;;;;5044763;28;20558;-69
2023/01/18 00:26:09;;;;;;;33.45;12.70;;;;;;;;;;5048289;28;20017;-68
2023/01/18 00:28:34;;;;;;;35.55;13.82;;;;;;;;;;5044927;28;20501;-69
2023/01/18 00:30:59;;;;;;;26.52;13.57;;;;;;;;;;5044777;28;20017;-69
2023/01/18 00:33:25;;;;;;;36.03;13.32;;;;;;;;;;5049284;28;20107;-69
2023/01/18 00:36:08;;;;;;;32.28;13.35;;;;;;;;;;5045983;28;20114;-68
2023/01/18 00:38:33;;;;;;;29.73;13.48;;;;;;;;;;5042154;28;20508;-69
2023/01/18 00:40:59;;;;;;;37.13;14.20;;;;;;;;;;5049779;28;20028;-69
2023/01/18 00:43:39;;;;;;;31.23;13.05;;;;;;;;;;5030594;28;20017;-69
2023/01/18 00:46:11;;;;;;;36.85;13.93;;;;;;;;;;5047423;28;20023;-69
2023/01/18 00:48:40;;;;;;;34.10;13.65;;;;;;;;;;5047604;28;20489;-69
2023/01/18 00:51:09;;;;;;;32.90;13.98;;;;;;;;;;5045532;28;20024;-69
2023/01/18 00:53:36;;;;;;;38.10;13.73;;;;;;;;;;5047425;28;20044;-69
2023/01/18 00:56:02;;;;;;;28.63;12.68;;;;;;;;;;5047826;28;20377;-69
2023/01/18 00:58:27;;;;;;;35.90;14.95;;;;;;;;;;5046523;28;20027;-69
2023/01/18 01:00:53;;;;;;;33.22;14.25;;;;;;;;;;5041606;28;20109;-69
2023/01/18 01:03:18;;;;;;;35.53;14.50;;;;;;;;;;5040888;28;20013;-69
2023/01/18 01:08:27;;;;;;;41.38;14.77;;;;;;;;;;5044243;28;20044;-69
2023/01/18 01:11:03;;;;;;;30.92;13.85;;;;;;;;;;5051551;28;20021;-69
2023/01/18 01:27:09;;;;;;;35.70;14.20;;;;;;;;;;5051822;28;20036;-69
2023/01/18 01:29:34;;;;;;;31.17;14.27;;;;;;;;;;5041041;28;20070;-69
2023/01/18 01:31:59;;;;;;;41.75;15.43;;;;;;;;;;5044406;28;20029;-69
2023/01/18 01:34:25;;;;;;;39.90;14.18;;;;;;;;;;5047838;28;20021;-69
2023/01/18 01:36:51;;;;;;;37.78;14.77;;;;;;;;;;5045996;28;20032;-69
2023/01/18 01:39:16;;;;;;;32.92;13.48;;;;;;;;;;5044827;28;20017;-69
2023/01/18 01:41:41;;;;;;;33.42;14.75;;;;;;;;;;5037870;28;20088;-69
2023/01/18 01:44:18;;;;;;;34.08;14.15;;;;;;;;;;5044841;28;20013;-69
2023/01/18 01:46:49;;;;;;;35.33;12.63;;;;;;;;;;5048714;28;20021;-69
2023/01/18 01:49:17;;;;;;;27.65;13.07;;;;;;;;;;5043747;28;20504;-69
2023/01/18 01:51:54;;;;;;;40.45;13.60;;;;;;;;;;5043371;28;20027;-69
2023/01/18 01:54:25;;;;;;;32.03;13.50;;;;;;;;;;5044307;28;20020;-69
2023/01/18 01:56:52;;;;;;;33.42;14.82;;;;;;;;;;5051621;28;20393;-69
2023/01/18 01:59:17;;;;;;;35.97;13.75;;;;;;;;;;5046235;28;20489;-69
2023/01/18 02:01:43;;;;;;;35.72;14.50;;;;;;;;;;5041659;28;20083;-69
2023/01/18 02:04:09;;;;;;;39.03;14.57;;;;;;;;;;5046835;28;20070;-69
2023/01/18 02:06:36;;;;;;;37.13;14.98;;;;;;;;;;5049789;28;20029;-69
2023/01/18 02:09:04;;;;;;;29.23;13.32;;;;;;;;;;5044151;28;20024;-69
2023/01/18 02:11:29;;;;;;;40.22;14.18;;;;;;;;;;5042132;28;20097;-69
2023/01/18 02:13:56;;;;;;;34.70;14.35;;;;;;;;;;5045068;28;20119;-69
2023/01/18 02:16:27;;;;;;;38.75;12.98;;;;;;;;;;5044298;28;20029;-69
2023/01/18 02:18:53;;;;;;;28.95;12.85;;;;;;;;;;5046132;28;20116;-69
2023/01/18 02:21:23;;;;;;;34.15;13.65;;;;;;;;;;5047208;28;20100;-69
2023/01/18 02:23:48;;;;;;;35.42;14.20;;;;;;;;;;5043361;28;20041;-69
2023/01/18 02:26:22;;;;;;;34.33;13.52;;;;;;;;;;5027341;28;20064;-69
2023/01/18 02:28:55;;;;;;;34.30;16.10;;;;;;;;;;5048389;28;20039;-69
2023/01/18 02:31:24;;;;;;;31.88;13.63;;;;;;;;;;5042642;28;20432;-69
2023/01/18 02:34:01;;;;;;;34.15;14.68;;;;;;;;;;5047573;28;20029;-69
2023/01/18 02:36:40;;;;;;;35.35;14.57;;;;;;;;;;5028073;28;20497;-69
2023/01/18 02:39:12;;;;;;;34.10;13.60;;;;;;;;;;5042752;28;20028;-69
2023/01/18 02:47:21;;;;;;;32.03;11.90;;;;;;;;;;5042072;28;20119;-69
2023/01/18 02:49:47;;;;;;;34.15;14.20;;;;;;;;;;5047468;28;20285;-69
2023/01/18 02:52:36;;;;;;;30.77;13.93;;;;;;;;;;5047532;28;20155;-69
2023/01/18 02:55:01;;;;;;;31.70;14.35;;;;;;;;;;5044409;28;20546;-69
2023/01/18 02:57:27;;;;;;;33.63;13.48;;;;;;;;;;5044123;28;20108;-69
2023/01/18 02:59:54;;;;;;;29.80;14.10;;;;;;;;;;5048140;28;20013;-69
2023/01/18 03:02:20;;;;;;;35.03;14.65;;;;;;;;;;5044357;28;20021;-69
2023/01/18 03:04:53;;;;;;;32.88;14.15;;;;;;;;;;5044576;28;20037;-69
2023/01/18 03:07:27;;;;;;;29.80;13.80;;;;;;;;;;5042895;28;20503;-69
2023/01/18 03:09:53;;;;;;;25.65;11.27;;;;;;;;;;5039990;28;20069;-69
2023/01/18 03:12:18;;;;;;;30.65;13.45;;;;;;;;;;5048435;28;20485;-69
2023/01/18 03:15:07;;;;;;;31.52;13.30;;;;;;;;;;5046790;28;20031;-69
2023/01/18 03:17:38;;;;;;;33.88;12.70;;;;;;;;;;5045506;28;20635;-69
2023/01/18 03:20:08;;;;;;;41.25;14.00;;;;;;;;;;5044921;28;20013;-69
2023/01/18 03:25:26;;;;;;;28.30;13.55;;;;;;;;;;5031878;28;20036;-69
2023/01/18 03:36:09;;;;;;;38.58;14.70;;;;;;;;;;5042615;28;20255;-69
2023/01/18 03:38:35;;;;;;;34.67;14.00;;;;;;;;;;5038924;28;20508;-69
2023/01/18 03:41:00;;;;;;;33.72;13.55;;;;;;;;;;5043368;28;20450;-69
2023/01/18 03:43:27;;;;;;;37.15;14.38;;;;;;;;;;5048454;28;20092;-69
2023/01/18 03:45:54;;;;;;;31.90;13.90;;;;;;;;;;5047800;28;20362;-69
2023/01/18 03:48:19;;;;;;;27.92;14.00;;;;;;;;;;5044664;28;20029;-69
2023/01/18 03:50:52;;;;;;;34.33;13.75;;;;;;;;;;5047656;28;20079;-69
2023/01/18 03:53:39;;;;;;;37.25;14.45;;;;;;;;;;5045046;28;20064;-69
2023/01/18 03:56:08;;;;;;;30.00;13.45;;;;;;;;;;5047473;28;20485;-69
2023/01/18 03:58:35;;;;;;;35.58;13.73;;;;;;;;;;5030304;28;20079;-69
2023/01/18 04:01:02;;;;;;;34.03;13.70;;;;;;;;;;5042987;28;20028;-69
2023/01/18 04:03:28;;;;;;;32.80;14.10;;;;;;;;;;5025407;28;20017;-69
2023/01/18 04:05:54;;;;;;;31.48;13.43;;;;;;;;;;5046519;28;20051;-69
2023/01/18 04:08:20;;;;;;;31.67;13.48;;;;;;;;;;5044566;28;20100;-69
2023/01/18 04:10:46;;;;;;;42.60;14.73;;;;;;;;;;5045061;28;20025;-69
2023/01/18 04:13:11;;;;;;;40.25;14.20;;;;;;;;;;5046534;28;20078;-69
2023/01/18 04:15:36;;;;;;;28.80;11.70;;;;;;;;;;5043225;28;20028;-69
2023/01/18 04:18:01;;;;;;;34.70;13.10;;;;;;;;;;5028000;28;20024;-69
2023/01/18 04:20:26;;;;;;;39.83;14.30;;;;;;;;;;5044833;28;20017;-69
2023/01/18 04:22:52;;;;;;;37.30;13.35;;;;;;;;;;5039297;28;20324;-69
2023/01/18 04:25:18;;;;;;;41.97;14.15;;;;;;;;;;5047177;28;20029;-69
2023/01/18 04:27:43;;;;;;;37.05;13.88;;;;;;;;;;5044919;28;20036;-69
2023/01/18 04:30:08;;;;;;;30.23;13.32;;;;;;;;;;5046848;28;20051;-69
2023/01/18 04:32:34;;;;;;;36.00;14.95;;;;;;;;;;5043591;28;20025;-69
2023/01/18 04:34:59;;;;;;;40.08;14.32;;;;;;;;;;5046283;28;20028;-69
2023/01/18 04:37:33;;;;;;;42.75;14.38;;;;;;;;;;5038053;28;20082;-69
2023/01/18 04:39:59;;;;;;;37.03;14.40;;;;;;;;;;5046626;28;20094;-69
2023/01/18 04:42:24;;;;;;;36.22;14.05;;;;;;;;;;5040919;28;20524;-69
2023/01/18 04:44:50;;;;;;;37.30;13.07;;;;;;;;;;5046194;28;20388;-69
2023/01/18 04:47:15;;;;;;;30.83;12.50;;;;;;;;;;5048945;28;20488;-69
2023/01/18 04:49:40;;;;;;;33.58;13.50;;;;;;;;;;5050984;28;20032;-68
2023/01/18 04:52:06;;;;;;;35.45;14.65;;;;;;;;;;5044515;28;20033;-69
2023/01/18 04:54:31;;;;;;;27.02;13.40;;;;;;;;;;5048683;28;20040;-69
2023/01/18 04:56:56;;;;;;;45.97;13.75;;;;;;;;;;5051317;28;20063;-69
2023/01/18 04:59:21;;;;;;;34.15;14.70;;;;;;;;;;5044592;28;20025;-69
2023/01/18 05:01:46;;;;;;;29.92;13.23;;;;;;;;;;5040281;28;20029;-69
2023/01/18 05:04:12;;;;;;;37.67;13.95;;;;;;;;;;5048922;28;20024;-69
2023/01/18 05:06:37;;;;;;;41.72;14.15;;;;;;;;;;5052381;28;20465;-69
2023/01/18 05:09:02;;;;;;;42.90;13.48;;;;;;;;;;5047811;28;20012;-69
2023/01/18 05:11:27;;;;;;;36.30;13.32;;;;;;;;;;5051268;28;20017;-69
2023/01/18 05:13:52;;;;;;;29.20;13.10;;;;;;;;;;5049946;28;20031;-69
2023/01/18 05:16:18;;;;;;;30.17;14.48;;;;;;;;;;5046702;28;20458;-69
2023/01/18 05:18:43;;;;;;;47.38;16.88;;;;;;;;;;5028851;28;20024;-69
2023/01/18 05:21:09;;;;;;;40.22;15.25;;;;;;;;;;5052043;28;20423;-69
2023/01/18 05:23:34;;;;;;;40.55;15.55;;;;;;;;;;5042725;28;20079;-69
2023/01/18 05:25:59;;;;;;;33.47;14.05;;;;;;;;;;5051241;28;20465;-69
2023/01/18 05:28:26;;;;;;;38.03;15.70;;;;;;;;;;5045286;28;20032;-69
2023/01/18 05:30:51;;;;;;;35.70;15.13;;;;;;;;;;5041345;28;20033;-69
2023/01/18 05:33:17;;;;;;;44.72;14.82;;;;;;;;;;5047025;28;20021;-69
2023/01/18 05:35:46;;;;;;;39.85;15.75;;;;;;;;;;5049047;28;20032;-69
2023/01/18 05:38:11;;;;;;;40.60;16.20;;;;;;;;;;5047277;28;20036;-68
2023/01/18 05:40:37;;;;;;;39.03;15.50;;;;;;;;;;5048441;28;20021;-69
2023/01/18 05:43:02;;;;;;;43.67;14.55;;;;;;;;;;5023779;28;20549;-69
2023/01/18 05:45:27;;;;;;;41.25;15.40;;;;;;;;;;5046337;28;20013;-69
2023/01/18 05:47:53;;;;;;;36.40;14.60;;;;;;;;;;5039274;28;20055;-69
2023/01/18 05:50:19;;;;;;;35.70;15.00;;;;;;;;;;5047751;28;20029;-68
2023/01/18 05:52:44;;;;;;;33.80;14.73;;;;;;;;;;5040757;28;20114;-69
2023/01/18 05:55:09;;;;;;;36.17;15.02;;;;;;;;;;5050032;28;20024;-69
2023/01/18 05:57:34;;;;;;;34.67;13.98;;;;;;;;;;5044524;28;20029;-69
2023/01/18 06:00:01;;;;;;;35.70;14.95;;;;;;;;;;5047979;28;20381;-69
2023/01/18 06:02:26;;;;;;;40.15;14.93;;;;;;;;;;5047204;28;20025;-69
2023/01/18 06:04:51;;;;;;;43.70;13.23;;;;;;;;;;5051615;28;20554;-69
2023/01/18 06:07:16;;;;;;;39.60;15.20;;;;;;;;;;5042511;28;20025;-69
2023/01/18 06:09:41;;;;;;;45.00;13.45;;;;;;;;;;5041723;28;20455;-70
2023/01/18 06:12:07;;;;;;;41.60;12.70;;;;;;;;;;5038275;28;20029;-69
2023/01/18 06:14:32;;;;;;;41.95;13.82;;;;;;;;;;5043899;28;20070;-70
2023/01/18 06:16:57;;;;;;;35.00;12.27;;;;;;;;;;5045322;28;22186;-69
2023/01/18 06:19:22;;;;;;;35.25;14.38;;;;;;;;;;5050653;28;20021;-69
2023/01/18 06:21:48;;;;;;;33.42;14.35;;;;;;;;;;5041025;28;20053;-69
2023/01/18 06:24:13;;;;;;;37.53;14.10;;;;;;;;;;5040926;28;20025;-70
2023/01/18 06:26:38;;;;;;;38.00;14.20;;;;;;;;;;5040233;28;20017;-69
2023/01/18 06:29:03;;;;;;;44.45;15.02;;;;;;;;;;5037209;28;20119;-69
2023/01/18 06:31:28;;;;;;;38.72;15.27;;;;;;;;;;5044216;28;20047;-69
2023/01/18 06:33:54;;;;;;;34.72;14.60;;;;;;;;;;5039111;28;20136;-69
2023/01/18 06:36:19;;;;;;;47.70;14.70;;;;;;;;;;5041362;28;20027;-69
2023/01/18 06:38:44;;;;;;;37.40;15.18;;;;;;;;;;5049801;28;20043;-69
2023/01/18 06:41:09;;;;;;;39.20;15.40;;;;;;;;;;5038646;28;20024;-69
2023/01/18 06:43:34;;;;;;;39.03;15.23;;;;;;;;;;5039820;28;20025;-69
2023/01/18 06:46:00;;;;;;;46.17;15.35;;;;;;;;;;5039996;28;20045;-69
2023/01/18 06:48:25;;;;;;;42.03;15.88;;;;;;;;;;5041614;28;20512;-69
2023/01/18 06:50:51;;;;;;;37.60;15.23;;;;;;;;;;5051318;28;20027;-69
2023/01/18 06:53:17;;;;;;;34.75;15.18;;;;;;;;;;5037748;28;20080;-69
2023/01/18 06:55:42;;;;;;;44.20;15.27;;;;;;;;;;5041315;28;20024;-69
2023/01/18 06:58:07;;;;;;;42.80;16.15;;;;;;;;;;5040479;28;20032;-69
2023/01/18 07:00:33;;;;;;;40.92;13.95;;;;;;;;;;5047650;28;20492;-69
2023/01/18 07:02:58;;;;;;;33.33;13.55;;;;;;;;;;5043497;28;20072;-69
2023/01/18 07:05:23;;;;;;;39.47;14.95;;;;;;;;;;5044871;28;20513;-69
2023/01/18 07:07:48;;;;;;;34.05;12.82;;;;;;;;;;5043878;28;20143;-69
2023/01/18 07:10:13;;;;;;;42.45;14.80;;;;;;;;;;5043742;28;20056;-69
2023/01/18 07:12:39;;;;;;;35.50;14.80;;;;;;;;;;5047405;28;20025;-69
2023/01/18 07:15:06;;;;;;;39.42;14.77;;;;;;;;;;5045656;28;20039;-69
2023/01/18 07:17:31;;;;;;;38.78;14.88;;;;;;;;;;5049548;28;20024;-69
2023/01/18 07:19:56;;;;;;;37.80;15.68;;;;;;;;;;5041844;28;20370;-69
2023/01/18 07:22:22;;;;;;;29.58;12.43;;;;;;;;;;5045360;28;20028;-68
2023/01/18 07:24:47;;;;;;;40.78;14.27;;;;;;;;;;5050053;28;20005;-69
2023/01/18 07:27:12;;;;;;;12.98;5.88;;;;;;;;;;5045205;28;20136;-69
2023/01/18 07:29:38;;;;;;;40.47;15.95;;;;;;;;;;5039107;28;20016;-68
2023/01/18 07:32:04;;;;;;;40.42;15.27;;;;;;;;;;5038651;28;20027;-69
2023/01/18 07:34:29;;;;;;;32.75;14.32;;;;;;;;;;5041385;28;20099;-69
2023/01/18 07:36:54;;;;;;;35.63;15.30;;;;;;;;;;5040579;28;20026;-70
2023/01/18 07:39:19;;;;;;;27.17;11.50;;;;;;;;;;5035475;28;20654;-70
2023/01/18 07:41:45;;;;;;;31.73;13.50;;;;;;;;;;5042792;28;20017;-70
2023/01/18 07:44:10;;;;;;;49.28;16.15;;;;;;;;;;5046372;28;20469;-70
2023/01/18 07:46:35;;;;;;;35.88;15.43;;;;;;;;;;5039801;28;20012;-70
2023/01/18 07:49:04;;;;;;;42.67;17.13;;;;;;;;;;5045131;28;20124;-70
2023/01/18 07:51:29;;;;;;;43.78;15.38;;;;;;;;;;5039311;28;20023;-70
2023/01/18 07:53:55;;;;;;;40.03;16.42;;;;;;;;;;5041485;28;20025;-70
2023/01/18 07:56:21;;;;;;;31.58;14.60;;;;;;;;;;5046314;28;20428;-70
2023/01/18 07:58:47;;;;;;;47.92;16.45;;;;;;;;;;5047960;28;20017;-70
2023/01/18 08:01:13;;;;;;;38.22;15.85;;;;;;;;;;5049361;28;20027;-70
2023/01/18 08:03:40;;;;;;;43.20;15.95;;;;;;;;;;5047800;28;20025;-70
2023/01/18 08:06:06;;;;;;;42.53;17.15;;;;;;;;;;5046036;28;20108;-69
2023/01/18 08:08:31;;;;;;;34.85;13.45;;;;;;;;;;5040887;28;20493;-69
2023/01/18 08:10:58;;;;;;;44.88;16.73;;;;;;;;;;5048730;28;20029;-70
2023/01/18 08:13:24;;;;;;;47.53;16.77;;;;;;;;;;5047650;28;20032;-69
2023/01/18 08:15:49;;;;;;;43.38;16.73;;;;;;;;;;5049287;28;20021;-70
2023/01/18 08:18:14;;;;;;;47.92;17.98;;;;;;;;;;5044105;28;20445;-70
2023/01/18 08:20:43;;;;;;;43.78;18.08;;;;;;;;;;5043075;28;20021;-69
2023/01/18 08:23:09;;;;;;;41.42;17.60;;;;;;;;;;5047325;28;20176;-69
2023/01/18 08:25:34;;;;;;;55.05;18.38;;;;;;;;;;5043747;28;20565;-69
2023/01/18 08:28:00;;;;;;;45.45;17.27;;;;;;;;;;5026562;28;20035;-69
2023/01/18 08:30:27;;;;;;;46.95;19.60;;;;;;;;;;5042947;28;20113;-70
2023/01/18 08:32:56;;;;;;;41.58;16.17;;;;;;;;;;5045106;28;20021;-70
2023/01/18 08:35:21;;;;;;;41.97;15.50;;;;;;;;;;5040208;28;20346;-69
2023/01/18 08:37:47;;;;;;;44.30;18.00;;;;;;;;;;5045689;28;20376;-69
2023/01/18 08:40:12;;;;;;;40.17;16.90;;;;;;;;;;5049559;28;20021;-69
2023/01/18 08:42:37;;;;;;;44.38;18.63;;;;;;;;;;5040681;28;20113;-69
2023/01/18 08:45:03;;;;;;;42.42;18.08;;;;;;;;;;5046745;28;20031;-69
2023/01/18 08:47:28;;;;;;;43.70;17.45;;;;;;;;;;5048054;28;20308;-69
2023/01/18 08:49:54;;;;;;;49.47;17.73;;;;;;;;;;5047783;28;20044;-68
2023/01/18 08:52:19;;;;;;;48.33;18.60;;;;;;;;;;5045602;28;20087;-69
2023/01/18 08:54:44;;;;;;;46.60;18.67;;;;;;;;;;5046483;28;20078;-70
2023/01/18 08:57:09;;;;;;;60.22;19.98;;;;;;;;;;5048112;28;20385;-69
2023/01/18 08:59:35;;;;;;;39.53;17.20;;;;;;;;;;5041239;28;20033;-70
2023/01/18 09:02:00;;;;;;;43.30;17.58;;;;;;;;;;5043117;28;20482;-69
2023/01/18 09:04:27;;;;;;;38.38;15.25;;;;;;;;;;5043552;28;20471;-69
2023/01/18 09:06:52;;;;;;;24.23;10.40;;;;;;;;;;5042864;28;20024;-69
2023/01/18 09:09:18;;;;;;;45.85;18.05;;;;;;;;;;5045883;28;20021;-69
2023/01/18 09:11:43;;;;;;;25.27;10.07;;;;;;;;;;5039286;28;20025;-69
2023/01/18 09:14:08;;;;;;;44.42;16.27;;;;;;;;;;5039983;28;20071;-69
2023/01/18 09:16:33;;;;;;;45.00;17.80;;;;;;;;;;5041210;28;20386;-69
2023/01/18 09:18:59;;;;;;;45.20;16.37;;;;;;;;;;5042238;28;20025;-69
2023/01/18 09:21:26;;;;;;;26.05;10.90;;;;;;;;;;5042254;28;20635;-69
2023/01/18 09:23:51;;;;;;;41.38;16.85;;;;;;;;;;5044656;28;20500;-69
2023/01/18 09:26:19;;;;;;;40.25;15.85;;;;;;;;;;5045293;28;20021;-69
2023/01/18 09:28:49;;;;;;;26.65;5.75;;;;;;;;;;5042217;28;20017;-69
2023/01/18 09:31:15;;;;;;;30.75;11.15;;;;;;;;;;5040466;28;20021;-69
2023/01/18 09:33:41;;;;;;;51.28;17.48;;;;;;;;;;5044788;28;20078;-69
2023/01/18 09:36:08;;;;;;;25.13;10.55;;;;;;;;;;5051843;28;20017;-70
2023/01/18 09:38:35;;;;;;;39.22;15.05;;;;;;;;;;5046618;28;20481;-70
2023/01/18 09:41:01;;;;;;;41.30;14.82;;;;;;;;;;5048259;28;20032;-68
2023/01/18 09:43:27;;;;;;;42.10;17.48;;;;;;;;;;5048676;28;20017;-69
2023/01/18 09:45:54;;;;;;;50.78;16.20;;;;;;;;;;5044958;28;20066;-68
2023/01/18 09:48:28;;;;;;;54.72;18.77;;;;;;;;;;5044075;28;20021;-69
2023/01/18 09:50:55;;;;;;;35.88;14.63;;;;;;;;;;5046353;28;20025;-69
2023/01/18 09:53:29;;;;;;;25.48;10.57;;;;;;;;;;5049005;28;20052;-69
2023/01/18 09:56:02;;;;;;;60.97;18.80;;;;;;;;;;5052650;28;20033;-69
2023/01/18 09:58:45;;;;;;;44.75;17.85;;;;;;;;;;5048525;28;20021;-69
2023/01/18 10:01:18;;;;;;;26.88;11.32;;;;;;;;;;5042653;28;20476;-69
2023/01/18 10:03:43;;;;;;;37.15;14.52;;;;;;;;;;5041377;28;20021;-69
2023/01/18 10:06:14;;;;;;;28.70;12.98;;;;;;;;;;5054447;28;20090;-69
2023/01/18 10:08:54;;;;;;;32.58;12.02;;;;;;;;;;5048930;28;20288;-69
2023/01/18 10:11:46;;;;;;;19.05;8.50;;;;;;;;;;5045738;28;20032;-68
2023/01/18 10:14:20;;;;;;;38.78;14.30;;;;;;;;;;5037822;28;20539;-68
2023/01/18 10:16:47;;;;;;;25.08;10.25;;;;;;;;;;5045140;28;20025;-68
2023/01/18 10:19:15;;;;;;;50.88;19.58;;;;;;;;;;5048855;28;20052;-68
2023/01/18 10:22:04;;;;;;;51.20;16.63;;;;;;;;;;5050459;28;20071;-68
2023/01/18 10:24:32;;;;;;;43.25;17.60;;;;;;;;;;5048426;28;20033;-68
2023/01/18 10:27:02;;;;;;;54.80;18.42;;;;;;;;;;5050213;28;20021;-69
2023/01/18 10:29:46;;;;;;;41.72;14.32;;;;;;;;;;5045117;28;20091;-69
2023/01/18 10:32:16;;;;;;;46.28;17.67;;;;;;;;;;5043017;28;20388;-69
2023/01/18 10:34:43;;;;;;;44.75;15.80;;;;;;;;;;5040392;28;20025;-69
2023/01/18 10:37:13;;;;;;;52.13;18.20;;;;;;;;;;5045341;28;20086;-69
2023/01/18 10:39:40;;;;;;;33.13;12.98;;;;;;;;;;5041402;28;20361;-69
2023/01/18 10:42:16;;;;;;;49.35;18.13;;;;;;;;;;5044157;28;20032;-69
2023/01/18 10:44:41;;;;;;;33.05;12.02;;;;;;;;;;5045604;28;20273;-69
2023/01/18 10:47:06;;;;;;;39.38;14.32;;;;;;;;;;5037308;28;20393;-69
2023/01/18 10:49:36;;;;;;;30.50;13.43;;;;;;;;;;5039620;28;20501;-69
2023/01/18 10:52:19;;;;;;;22.70;8.82;;;;;;;;;;5047147;28;20029;-69
2023/01/18 10:54:48;;;;;;;53.80;20.58;;;;;;;;;;5033959;28;20029;-69
2023/01/18 10:57:18;;;;;;;35.50;13.43;;;;;;;;;;5041487;28;20538;-69
2023/01/18 10:59:43;;;;;;;55.63;20.95;;;;;;;;;;5046226;28;20032;-68
2023/01/18 11:02:18;;;;;;;52.90;19.30;;;;;;;;;;5056769;23;20408;-70
2023/01/18 11:04:44;;;;;;;48.63;16.58;;;;;;;;;;5028227;28;20079;-69
2023/01/18 11:07:09;;;;;;;53.17;15.80;;;;;;;;;;5028769;28;20378;-69
2023/01/18 11:09:34;;;;;;;30.48;13.00;;;;;;;;;;5028827;28;20218;-69
2023/01/18 11:12:40;;;;;;;30.30;13.40;;;;;;;;;;5024281;28;20022;-70
2023/01/18 11:15:14;;;;;;;27.38;12.07;;;;;;;;;;5028067;28;20272;-70
2023/01/18 11:17:42;;;;;;;59.03;19.85;;;;;;;;;;5025866;28;20436;-70
2023/01/18 11:20:14;;;;;;;52.00;18.50;;;;;;;;;;5028204;28;20028;-70
2023/01/18 11:22:51;;;;;;;52.55;18.13;;;;;;;;;;5028106;28;20005;-69
2023/01/18 11:25:16;;;;;;;47.75;16.77;;;;;;;;;;5027446;28;20029;-69
2023/01/18 11:27:42;;;;;;;41.47;18.00;;;;;;;;;;5024446;28;20401;-70
2023/01/18 11:30:17;;;;;;;44.35;18.42;;;;;;;;;;5025196;28;20025;-70
2023/01/18 11:32:42;;;;;;;47.47;17.25;;;;;;;;;;5031934;28;20033;-69
2023/01/18 11:35:08;;;;;;;50.03;20.33;;;;;;;;;;5029168;28;20009;-70
2023/01/18 11:37:34;;;;;;;28.77;9.82;;;;;;;;;;5025794;28;20273;-69
2023/01/18 11:40:18;;;;;;;21.08;8.98;;;;;;;;;;5027090;28;20030;-70
2023/01/18 11:42:43;;;;;;;39.70;15.23;;;;;;;;;;5022907;28;20024;-70
2023/01/18 11:45:23;;;;;;;26.00;11.18;;;;;;;;;;5027380;28;20418;-70
2023/01/18 11:47:49;;;;;;;;;;;;;;;;;;5029556;28;20374;-70
2023/01/18 11:50:14;;;;;;;48.60;17.73;;;;;;;;;;5028441;28;19905;-70
2023/01/18 11:52:49;;;;;;;39.50;17.20;;;;;;;;;;5024876;28;20358;-70
2023/01/18 11:55:23;;;;;;;30.17;10.30;;;;;;;;;;5023850;28;20268;-70
2023/01/18 11:57:50;;;;;;;37.88;15.88;;;;;;;;;;5025022;28;20029;-70
2023/01/18 12:00:15;;;;;;;39.70;16.25;;;;;;;;;;5025657;28;20029;-70
2023/01/18 12:03:06;;;;;;;42.88;18.27;;;;;;;;;;5029041;28;20075;-70
2023/01/18 12:05:39;;;;;;;28.15;9.90;;;;;;;;;;4994270;28;20116;-70
2023/01/18 12:08:09;;;;;;;38.67;17.05;;;;;;;;;;5028213;28;20043;-70
2023/01/18 12:10:52;;;;;;;44.40;17.20;;;;;;;;;;5026644;28;20048;-70
2023/01/18 12:13:36;;;;;;;47.22;16.90;;;;;;;;;;5028754;28;20112;-71
2023/01/18 12:16:24;;;;;;;37.83;15.88;;;;;;;;;;5023867;28;20026;-70
2023/01/18 12:18:56;;;;;;;50.60;14.13;;;;;;;;;;4998588;28;20044;-70
2023/01/18 12:21:47;;;;;;;46.70;15.18;;;;;;;;;;5026455;28;20022;-70
2023/01/18 12:24:29;;;;;;;44.20;16.92;;;;;;;;;;5021030;28;20036;-70
2023/01/18 12:27:17;;;;;;;48.88;13.90;;;;;;;;;;5023287;28;20359;-70
2023/01/18 12:29:48;;;;;;;25.77;13.73;;;;;;;;;;5027102;28;20103;-71
2023/01/18 12:32:23;;;;;;;38.38;16.40;;;;;;;;;;5023187;28;20032;-70
2023/01/18 12:34:57;;;;;;;35.13;15.57;;;;;;;;;;5021430;28;20112;-71
2023/01/18 12:37:42;;;;;;;42.90;18.02;;;;;;;;;;5023880;28;20034;-71
2023/01/18 12:40:15;;;;;;;37.42;15.20;;;;;;;;;;5027421;28;20026;-71
2023/01/18 12:43:03;;;;;;;37.25;12.70;;;;;;;;;;5026332;28;20029;-71
2023/01/18 12:45:33;;;;;;;31.38;13.60;;;;;;;;;;5019773;28;20038;-71
2023/01/18 12:48:08;;;;;;;21.23;10.80;;;;;;;;;;5022568;28;20036;-70
2023/01/18 12:50:36;;;;;;;25.27;10.20;;;;;;;;;;5022278;28;20098;-70
2023/01/18 12:53:24;;;;;;;33.30;15.52;;;;;;;;;;5022303;28;20473;-70
2023/01/18 12:55:52;;;;;;;25.73;11.65;;;;;;;;;;5014268;28;20129;-71
2023/01/18 12:58:19;;;;;;;24.27;9.00;;;;;;;;;;5023975;28;20033;-70
2023/01/18 13:00:47;;;;;;;29.55;13.52;;;;;;;;;;5025836;28;20021;-70
2023/01/18 13:03:15;;;;;;;30.05;12.13;;;;;;;;;;5021916;28;20049;-70
2023/01/18 13:05:54;;;;;;;36.88;14.20;;;;;;;;;;5028659;28;20390;-70
2023/01/18 13:08:22;;;;;;;27.67;11.82;;;;;;;;;;5032024;28;20089;-70
2023/01/18 13:10:48;;;;;;;21.70;9.38;;;;;;;;;;5027263;28;20044;-70
2023/01/18 13:13:17;;;;;;;24.40;10.88;;;;;;;;;;5030652;28;20393;-70
2023/01/18 13:15:46;;;;;;;25.27;10.27;;;;;;;;;;5028348;28;21223;-70
2023/01/18 13:18:35;;;;;;;12.40;6.32;;;;;;;;;;5032062;28;20029;-70
2023/01/18 13:21:19;;;;;;;25.88;8.55;;;;;;;;;;5029225;28;20036;-70
2023/01/18 13:23:51;;;;;;;30.55;8.35;;;;;;;;;;5026191;28;20017;-70
2023/01/18 13:26:23;;;;;;;16.33;6.25;;;;;;;;;;5026864;28;20028;-70
2023/01/18 13:29:04;;;;;;;11.35;5.32;;;;;;;;;;5026377;28;20565;-70
2023/01/18 13:31:30;;;;;;;18.08;6.85;;;;;;;;;;5030499;28;20052;-70
2023/01/18 13:33:55;;;;;;;13.65;7.10;;;;;;;;;;5029857;28;20521;-70
2023/01/18 13:36:21;;;;;;;8.13;4.35;;;;;;;;;;5029455;28;20025;-70
2023/01/18 13:38:56;;;;;;;18.90;6.40;;;;;;;;;;5031860;28;20025;-70
2023/01/18 13:41:23;;;;;;;17.58;6.35;;;;;;;;;;5025230;28;20373;-70
2023/01/18 13:43:48;;;;;;;18.05;9.02;;;;;;;;;;5026878;28;20028;-70
2023/01/18 13:46:13;;;;;;;20.33;5.28;;;;;;;;;;5022890;28;20093;-70
2023/01/18 13:48:44;;;;;;;10.37;4.63;;;;;;;;;;5028472;28;20029;-70
2023/01/18 13:51:30;;;;;;;16.42;6.78;;;;;;;;;;5028123;28;20268;-70
2023/01/18 13:53:55;;;;;;;19.35;6.05;;;;;;;;;;5029048;28;20025;-70
2023/01/18 13:56:21;;;;;;;13.63;4.68;;;;;;;;;;5026375;28;20029;-70
2023/01/18 13:58:51;;;;;;;13.77;5.13;;;;;;;;;;5022884;28;20025;-70
2023/01/18 14:01:21;;;;;;;10.48;4.28;;;;;;;;;;5026906;28;20033;-70
2023/01/18 14:03:48;;;;;;;14.35;5.68;;;;;;;;;;5027069;28;20044;-70
2023/01/18 14:06:34;;;;;;;16.42;5.53;;;;;;;;;;5026639;28;20056;-70
2023/01/18 14:09:13;;;;;;;15.32;5.85;;;;;;;;;;5025052;28;20421;-71
2023/01/18 14:11:40;;;;;;;11.10;5.55;;;;;;;;;;5022469;28;20017;-70
2023/01/18 14:14:22;;;;;;;14.75;5.40;;;;;;;;;;5026855;28;20013;-70
2023/01/18 14:16:58;;;;;;;12.02;5.35;;;;;;;;;;5027667;28;20037;-70
2023/01/18 14:19:26;;;;;;;13.10;5.78;;;;;;;;;;5029253;28;20100;-70
2023/01/18 14:22:10;;;;;;;12.88;5.10;;;;;;;;;;5030053;28;20017;-70
2023/01/18 14:24:35;;;;;;;12.77;5.57;;;;;;;;;;5023029;28;20386;-70
2023/01/18 14:27:01;;;;;;;17.40;4.50;;;;;;;;;;5028444;28;20013;-70
2023/01/18 14:29:26;;;;;;;14.48;5.72;;;;;;;;;;5027555;28;20302;-69
2023/01/18 14:31:53;;;;;;;8.38;4.40;;;;;;;;;;5028246;28;20025;-69
2023/01/18 14:34:34;;;;;;;12.32;4.40;;;;;;;;;;5029255;28;20280;-70
2023/01/18 14:36:59;;;;;;;14.02;4.97;;;;;;;;;;5030055;28;20022;-69
2023/01/18 14:39:27;;;;;;;8.98;4.78;;;;;;;;;;5027516;28;20021;-70
2023/01/18 14:41:55;;;;;;;12.25;5.45;;;;;;;;;;5028667;28;20025;-70
2023/01/18 14:44:21;;;;;;;15.90;6.72;;;;;;;;;;5028055;28;20036;-70
2023/01/18 14:46:50;;;;;;;10.32;2.72;;;;;;;;;;5026427;28;20017;-69
2023/01/18 14:49:19;;;;;;;6.20;2.97;;;;;;;;;;5030357;28;20097;-69
2023/01/18 14:51:46;;;;;;;17.65;5.05;;;;;;;;;;5028101;28;20039;-70
2023/01/18 14:54:13;;;;;;;12.63;4.95;;;;;;;;;;5021682;28;20061;-69
2023/01/18 14:56:39;;;;;;;14.07;4.82;;;;;;;;;;5028177;28;20103;-70
2023/01/18 14:59:18;;;;;;;14.55;4.85;;;;;;;;;;5027499;28;20026;-70
2023/01/18 15:01:50;;;;;;;8.93;3.55;;;;;;;;;;5027052;28;20042;-70